CheckWX is a tool to help pilots better visualize weather data.  It is not intended as a substitute for an official pre-flight weather briefing.

10:06:52 UTC

EGTE TAF
Exeter International Airport
Exeter, United Kingdom
TAF EGTE 260756Z 2609/2618 06011KT 5000 BR BKN009 BECMG 2609/2612 9999 NSW SCT025

Jun-26@
09:00 UTC

Jun-26 @ 09:00 UTC

Jun-26@
18:00 UTC

Jun-26 @ 18:00 UTC

TAF EGTE 260756Z 2609/2618 06011KT 5000 BR BKN009
Wind
  • 060° at 11 KTS
Conditions
Mist
Cloud Levels
  • Broken at 900' AGL

Jun-26@
09:00 UTC

Jun-26 @ 09:00 UTC

Jun-26@
18:00 UTC

Jun-26 @ 18:00 UTC

BECMG 2609/2612 9999 NSW SCT025

Becoming

Becoming Conditions expected by Wed, Jun 26, 2019 @ 12:00 UTC

Wind
  • 060° at 11 KTS
Conditions
No significant weather
Cloud Levels
  • Scattered at 2,500' AGL